sensor_id;sensor_type;location;lat;lon;timestamp;P1;durP1;ratioP1;P2;durP2;ratioP2
70929;SDS011;58588;48.102;19.682;2023-09-08T00:02:31;9.13;;;3.47;;
70929;SDS011;58588;48.102;19.682;2023-09-08T00:05:33;9.60;;;3.57;;
70929;SDS011;58588;48.102;19.682;2023-09-08T00:08:34;8.70;;;3.60;;
70929;SDS011;58588;48.102;19.682;2023-09-08T00:11:38;7.57;;;3.40;;
70929;SDS011;58588;48.102;19.682;2023-09-08T00:14:40;7.43;;;3.33;;
70929;SDS011;58588;48.102;19.682;2023-09-08T00:17:41;8.00;;;3.53;;
70929;SDS011;58588;48.102;19.682;2023-09-08T00:20:43;8.20;;;3.50;;
70929;SDS011;58588;48.102;19.682;2023-09-08T00:23:45;8.70;;;3.40;;
70929;SDS011;58588;48.102;19.682;2023-09-08T00:26:48;7.70;;;3.75;;
70929;SDS011;58588;48.102;19.682;2023-09-08T00:29:50;7.65;;;3.30;;
70929;SDS011;58588;48.102;19.682;2023-09-08T00:32:52;9.30;;;3.63;;
70929;SDS011;58588;48.102;19.682;2023-09-08T00:35:54;7.63;;;3.43;;
70929;SDS011;58588;48.102;19.682;2023-09-08T00:38:57;8.35;;;3.40;;
70929;SDS011;58588;48.102;19.682;2023-09-08T00:42:00;8.20;;;3.47;;
70929;SDS011;58588;48.102;19.682;2023-09-08T00:45:03;8.73;;;4.00;;
70929;SDS011;58588;48.102;19.682;2023-09-08T00:48:05;8.10;;;3.80;;
70929;SDS011;58588;48.102;19.682;2023-09-08T00:51:08;8.40;;;3.90;;
70929;SDS011;58588;48.102;19.682;2023-09-08T00:54:10;9.40;;;3.95;;
70929;SDS011;58588;48.102;19.682;2023-09-08T00:57:13;8.13;;;3.90;;
70929;SDS011;58588;48.102;19.682;2023-09-08T01:00:15;9.77;;;3.67;;
70929;SDS011;58588;48.102;19.682;2023-09-08T01:03:17;8.13;;;3.50;;
70929;SDS011;58588;48.102;19.682;2023-09-08T01:06:19;8.03;;;3.50;;
70929;SDS011;58588;48.102;19.682;2023-09-08T01:09:22;7.90;;;3.60;;
70929;SDS011;58588;48.102;19.682;2023-09-08T01:12:27;8.77;;;3.70;;
70929;SDS011;58588;48.102;19.682;2023-09-08T01:15:29;8.05;;;3.78;;
70929;SDS011;58588;48.102;19.682;2023-09-08T01:18:31;8.77;;;3.55;;
70929;SDS011;58588;48.102;19.682;2023-09-08T01:21:42;9.57;;;3.40;;
70929;SDS011;58588;48.102;19.682;2023-09-08T01:25:22;9.35;;;3.70;;
70929;SDS011;58588;48.102;19.682;2023-09-08T01:28:25;7.75;;;3.55;;
70929;SDS011;58588;48.102;19.682;2023-09-08T01:31:28;8.63;;;4.15;;
70929;SDS011;58588;48.102;19.682;2023-09-08T01:34:30;7.75;;;3.60;;
70929;SDS011;58588;48.102;19.682;2023-09-08T01:37:32;7.93;;;3.40;;
70929;SDS011;58588;48.102;19.682;2023-09-08T01:40:35;8.48;;;3.60;;
70929;SDS011;58588;48.102;19.682;2023-09-08T01:43:37;7.90;;;3.38;;
70929;SDS011;58588;48.102;19.682;2023-09-08T01:46:39;9.07;;;3.20;;
70929;SDS011;58588;48.102;19.682;2023-09-08T01:49:41;8.15;;;3.25;;
70929;SDS011;58588;48.102;19.682;2023-09-08T01:52:43;9.40;;;3.40;;
70929;SDS011;58588;48.102;19.682;2023-09-08T01:55:46;7.88;;;3.17;;
70929;SDS011;58588;48.102;19.682;2023-09-08T01:58:48;7.40;;;3.38;;
70929;SDS011;58588;48.102;19.682;2023-09-08T02:01:50;8.05;;;3.60;;
70929;SDS011;58588;48.102;19.682;2023-09-08T02:04:52;7.75;;;3.50;;
70929;SDS011;58588;48.102;19.682;2023-09-08T02:07:54;6.77;;;3.07;;
70929;SDS011;58588;48.102;19.682;2023-09-08T02:11:00;8.63;;;3.55;;
70929;SDS011;58588;48.102;19.682;2023-09-08T02:14:02;7.70;;;3.53;;
70929;SDS011;58588;48.102;19.682;2023-09-08T02:17:04;7.28;;;3.25;;
70929;SDS011;58588;48.102;19.682;2023-09-08T02:20:07;9.80;;;2.97;;
70929;SDS011;58588;48.102;19.682;2023-09-08T02:23:12;7.60;;;3.20;;
70929;SDS011;58588;48.102;19.682;2023-09-08T02:26:15;7.60;;;3.47;;
70929;SDS011;58588;48.102;19.682;2023-09-08T02:29:17;7.65;;;3.30;;
70929;SDS011;58588;48.102;19.682;2023-09-08T02:32:19;8.07;;;3.50;;
70929;SDS011;58588;48.102;19.682;2023-09-08T02:35:22;7.93;;;3.67;;
70929;SDS011;58588;48.102;19.682;2023-09-08T02:38:24;9.13;;;4.40;;
70929;SDS011;58588;48.102;19.682;2023-09-08T02:41:28;8.75;;;3.88;;
70929;SDS011;58588;48.102;19.682;2023-09-08T02:44:31;9.95;;;4.10;;
70929;SDS011;58588;48.102;19.682;2023-09-08T02:47:33;11.23;;;4.45;;
70929;SDS011;58588;48.102;19.682;2023-09-08T02:50:35;8.48;;;4.05;;
70929;SDS011;58588;48.102;19.682;2023-09-08T02:53:37;9.87;;;4.17;;
70929;SDS011;58588;48.102;19.682;2023-09-08T02:56:40;8.68;;;3.83;;
70929;SDS011;58588;48.102;19.682;2023-09-08T02:59:42;7.95;;;3.42;;
70929;SDS011;58588;48.102;19.682;2023-09-08T03:02:44;7.97;;;3.30;;
70929;SDS011;58588;48.102;19.682;2023-09-08T03:05:46;7.95;;;3.70;;
70929;SDS011;58588;48.102;19.682;2023-09-08T03:08:48;8.20;;;3.43;;
70929;SDS011;58588;48.102;19.682;2023-09-08T03:11:51;7.60;;;3.38;;
70929;SDS011;58588;48.102;19.682;2023-09-08T03:14:53;8.18;;;3.50;;
70929;SDS011;58588;48.102;19.682;2023-09-08T03:17:59;10.15;;;3.75;;
70929;SDS011;58588;48.102;19.682;2023-09-08T03:21:01;8.38;;;3.42;;
70929;SDS011;58588;48.102;19.682;2023-09-08T03:24:09;8.10;;;3.17;;
70929;SDS011;58588;48.102;19.682;2023-09-08T03:27:12;8.40;;;3.70;;
70929;SDS011;58588;48.102;19.682;2023-09-08T03:30:14;10.25;;;3.83;;
70929;SDS011;58588;48.102;19.682;2023-09-08T03:33:16;7.70;;;3.60;;
70929;SDS011;58588;48.102;19.682;2023-09-08T03:36:18;10.63;;;3.30;;
70929;SDS011;58588;48.102;19.682;2023-09-08T03:39:20;9.13;;;3.20;;
70929;SDS011;58588;48.102;19.682;2023-09-08T03:42:24;9.05;;;3.78;;
70929;SDS011;58588;48.102;19.682;2023-09-08T03:45:26;10.20;;;3.42;;
70929;SDS011;58588;48.102;19.682;2023-09-08T03:48:31;9.77;;;3.78;;
70929;SDS011;58588;48.102;19.682;2023-09-08T03:51:32;10.15;;;3.65;;
70929;SDS011;58588;48.102;19.682;2023-09-08T03:54:34;9.10;;;3.53;;
70929;SDS011;58588;48.102;19.682;2023-09-08T03:57:38;8.30;;;4.07;;
70929;SDS011;58588;48.102;19.682;2023-09-08T04:00:40;7.80;;;3.58;;
70929;SDS011;58588;48.102;19.682;2023-09-08T04:03:42;9.15;;;4.00;;
70929;SDS011;58588;48.102;19.682;2023-09-08T04:06:45;9.50;;;4.32;;
70929;SDS011;58588;48.102;19.682;2023-09-08T04:09:47;9.50;;;3.87;;
70929;SDS011;58588;48.102;19.682;2023-09-08T04:12:51;9.18;;;3.58;;
70929;SDS011;58588;48.102;19.682;2023-09-08T04:15:53;7.97;;;3.67;;
70929;SDS011;58588;48.102;19.682;2023-09-08T04:18:55;9.63;;;3.90;;
70929;SDS011;58588;48.102;19.682;2023-09-08T04:21:57;10.60;;;4.22;;
70929;SDS011;58588;48.102;19.682;2023-09-08T04:25:00;7.73;;;3.60;;
70929;SDS011;58588;48.102;19.682;2023-09-08T04:28:03;9.65;;;4.00;;
70929;SDS011;58588;48.102;19.682;2023-09-08T04:31:06;8.85;;;3.92;;
70929;SDS011;58588;48.102;19.682;2023-09-08T04:34:08;8.50;;;3.60;;
70929;SDS011;58588;48.102;19.682;2023-09-08T04:37:10;8.23;;;3.67;;
70929;SDS011;58588;48.102;19.682;2023-09-08T04:40:13;8.70;;;3.33;;
70929;SDS011;58588;48.102;19.682;2023-09-08T04:43:17;7.07;;;3.20;;
70929;SDS011;58588;48.102;19.682;2023-09-08T04:46:19;7.20;;;3.30;;
70929;SDS011;58588;48.102;19.682;2023-09-08T04:49:21;7.78;;;3.33;;
70929;SDS011;58588;48.102;19.682;2023-09-08T04:52:23;8.88;;;3.67;;
70929;SDS011;58588;48.102;19.682;2023-09-08T04:55:26;8.00;;;3.50;;
70929;SDS011;58588;48.102;19.682;2023-09-08T04:58:29;8.40;;;3.80;;
70929;SDS011;58588;48.102;19.682;2023-09-08T05:01:31;10.13;;;4.13;;
70929;SDS011;58588;48.102;19.682;2023-09-08T05:04:33;9.70;;;3.72;;
70929;SDS011;58588;48.102;19.682;2023-09-08T05:07:35;8.77;;;3.75;;
70929;SDS011;58588;48.102;19.682;2023-09-08T05:10:37;8.00;;;3.60;;
70929;SDS011;58588;48.102;19.682;2023-09-08T05:13:41;8.77;;;3.92;;
70929;SDS011;58588;48.102;19.682;2023-09-08T05:16:43;8.95;;;4.13;;
70929;SDS011;58588;48.102;19.682;2023-09-08T05:19:46;9.98;;;3.90;;
70929;SDS011;58588;48.102;19.682;2023-09-08T05:22:49;9.48;;;4.15;;
70929;SDS011;58588;48.102;19.682;2023-09-08T05:25:51;10.50;;;4.10;;
70929;SDS011;58588;48.102;19.682;2023-09-08T05:28:55;9.40;;;3.97;;
70929;SDS011;58588;48.102;19.682;2023-09-08T05:31:57;9.25;;;4.57;;
70929;SDS011;58588;48.102;19.682;2023-09-08T05:34:59;8.68;;;4.25;;
70929;SDS011;58588;48.102;19.682;2023-09-08T05:38:01;8.95;;;4.50;;
70929;SDS011;58588;48.102;19.682;2023-09-08T05:41:03;11.03;;;4.53;;
70929;SDS011;58588;48.102;19.682;2023-09-08T05:44:07;9.38;;;4.78;;
70929;SDS011;58588;48.102;19.682;2023-09-08T05:47:09;8.60;;;4.50;;
70929;SDS011;58588;48.102;19.682;2023-09-08T05:50:11;8.23;;;4.30;;
70929;SDS011;58588;48.102;19.682;2023-09-08T05:53:13;9.73;;;4.43;;
70929;SDS011;58588;48.102;19.682;2023-09-08T05:56:14;9.70;;;4.87;;
70929;SDS011;58588;48.102;19.682;2023-09-08T05:59:18;11.55;;;4.70;;
70929;SDS011;58588;48.102;19.682;2023-09-08T06:02:20;10.25;;;4.82;;
70929;SDS011;58588;48.102;19.682;2023-09-08T06:05:22;8.75;;;4.57;;
70929;SDS011;58588;48.102;19.682;2023-09-08T06:08:24;9.82;;;4.78;;
70929;SDS011;58588;48.102;19.682;2023-09-08T06:11:26;9.63;;;4.40;;
70929;SDS011;58588;48.102;19.682;2023-09-08T06:14:29;11.77;;;5.00;;
70929;SDS011;58588;48.102;19.682;2023-09-08T06:17:31;10.45;;;5.10;;
70929;SDS011;58588;48.102;19.682;2023-09-08T06:20:33;9.82;;;4.82;;
70929;SDS011;58588;48.102;19.682;2023-09-08T06:23:35;9.88;;;5.05;;
70929;SDS011;58588;48.102;19.682;2023-09-08T06:26:37;11.17;;;5.20;;
70929;SDS011;58588;48.102;19.682;2023-09-08T06:29:41;9.85;;;5.07;;
70929;SDS011;58588;48.102;19.682;2023-09-08T06:32:43;9.55;;;4.95;;
70929;SDS011;58588;48.102;19.682;2023-09-08T06:35:45;9.77;;;5.13;;
70929;SDS011;58588;48.102;19.682;2023-09-08T06:38:48;12.25;;;5.22;;
70929;SDS011;58588;48.102;19.682;2023-09-08T06:41:51;11.27;;;5.17;;
70929;SDS011;58588;48.102;19.682;2023-09-08T06:44:55;10.23;;;5.32;;
70929;SDS011;58588;48.102;19.682;2023-09-08T06:47:57;11.10;;;4.93;;
70929;SDS011;58588;48.102;19.682;2023-09-08T06:51:00;10.07;;;5.40;;
70929;SDS011;58588;48.102;19.682;2023-09-08T06:54:02;9.13;;;5.03;;
70929;SDS011;58588;48.102;19.682;2023-09-08T06:57:04;9.17;;;5.10;;
70929;SDS011;58588;48.102;19.682;2023-09-08T07:00:08;10.18;;;4.93;;
70929;SDS011;58588;48.102;19.682;2023-09-08T07:03:11;9.73;;;4.68;;
70929;SDS011;58588;48.102;19.682;2023-09-08T07:06:15;9.65;;;5.10;;
70929;SDS011;58588;48.102;19.682;2023-09-08T07:09:17;8.60;;;4.30;;
70929;SDS011;58588;48.102;19.682;2023-09-08T07:12:19;9.03;;;4.37;;
70929;SDS011;58588;48.102;19.682;2023-09-08T07:15:22;9.07;;;4.38;;
70929;SDS011;58588;48.102;19.682;2023-09-08T07:18:25;8.90;;;4.43;;
70929;SDS011;58588;48.102;19.682;2023-09-08T07:21:27;8.23;;;4.47;;
70929;SDS011;58588;48.102;19.682;2023-09-08T07:24:29;8.52;;;4.47;;
70929;SDS011;58588;48.102;19.682;2023-09-08T07:27:31;9.83;;;4.40;;
70929;SDS011;58588;48.102;19.682;2023-09-08T07:30:34;8.32;;;4.50;;
70929;SDS011;58588;48.102;19.682;2023-09-08T07:33:36;9.15;;;4.75;;
70929;SDS011;58588;48.102;19.682;2023-09-08T07:36:38;9.32;;;4.63;;
70929;SDS011;58588;48.102;19.682;2023-09-08T07:39:40;12.48;;;4.47;;
70929;SDS011;58588;48.102;19.682;2023-09-08T07:42:42;8.93;;;3.90;;
70929;SDS011;58588;48.102;19.682;2023-09-08T07:45:45;9.27;;;4.28;;
70929;SDS011;58588;48.102;19.682;2023-09-08T07:48:47;9.70;;;4.35;;
70929;SDS011;58588;48.102;19.682;2023-09-08T07:51:49;9.40;;;4.25;;
70929;SDS011;58588;48.102;19.682;2023-09-08T07:54:51;7.78;;;4.00;;
70929;SDS011;58588;48.102;19.682;2023-09-08T07:57:53;8.67;;;4.27;;
70929;SDS011;58588;48.102;19.682;2023-09-08T08:00:58;9.02;;;4.18;;
70929;SDS011;58588;48.102;19.682;2023-09-08T08:04:00;8.60;;;3.75;;
70929;SDS011;58588;48.102;19.682;2023-09-08T08:07:03;7.53;;;4.05;;
70929;SDS011;58588;48.102;19.682;2023-09-08T08:10:06;7.63;;;3.92;;
70929;SDS011;58588;48.102;19.682;2023-09-08T08:13:09;8.73;;;4.00;;
70929;SDS011;58588;48.102;19.682;2023-09-08T08:16:13;7.68;;;4.03;;
70929;SDS011;58588;48.102;19.682;2023-09-08T08:19:15;7.80;;;4.20;;
70929;SDS011;58588;48.102;19.682;2023-09-08T08:22:17;8.05;;;4.00;;
70929;SDS011;58588;48.102;19.682;2023-09-08T08:25:19;8.82;;;4.35;;
70929;SDS011;58588;48.102;19.682;2023-09-08T08:28:21;9.03;;;4.17;;
70929;SDS011;58588;48.102;19.682;2023-09-08T08:31:25;9.27;;;3.67;;
70929;SDS011;58588;48.102;19.682;2023-09-08T08:34:27;8.43;;;4.00;;
70929;SDS011;58588;48.102;19.682;2023-09-08T08:37:28;10.20;;;3.97;;
70929;SDS011;58588;48.102;19.682;2023-09-08T08:40:30;8.27;;;3.88;;
70929;SDS011;58588;48.102;19.682;2023-09-08T08:43:34;8.57;;;3.70;;
70929;SDS011;58588;48.102;19.682;2023-09-08T08:46:38;12.73;;;3.67;;
70929;SDS011;58588;48.102;19.682;2023-09-08T08:49:41;11.07;;;3.63;;
70929;SDS011;58588;48.102;19.682;2023-09-08T08:52:46;8.05;;;3.95;;
70929;SDS011;58588;48.102;19.682;2023-09-08T08:55:49;9.60;;;3.60;;
70929;SDS011;58588;48.102;19.682;2023-09-08T08:58:55;10.43;;;3.80;;
70929;SDS011;58588;48.102;19.682;2023-09-08T09:02:00;8.35;;;3.78;;
70929;SDS011;58588;48.102;19.682;2023-09-08T09:05:04;9.98;;;3.90;;
70929;SDS011;58588;48.102;19.682;2023-09-08T09:08:08;8.75;;;3.70;;
70929;SDS011;58588;48.102;19.682;2023-09-08T09:11:12;10.85;;;3.70;;
70929;SDS011;58588;48.102;19.682;2023-09-08T09:14:14;7.10;;;3.37;;
70929;SDS011;58588;48.102;19.682;2023-09-08T09:17:18;8.32;;;3.70;;
70929;SDS011;58588;48.102;19.682;2023-09-08T09:20:21;9.50;;;4.05;;
70929;SDS011;58588;48.102;19.682;2023-09-08T09:23:27;8.52;;;3.60;;
70929;SDS011;58588;48.102;19.682;2023-09-08T09:26:30;6.93;;;3.45;;
70929;SDS011;58588;48.102;19.682;2023-09-08T09:29:32;7.43;;;3.60;;
70929;SDS011;58588;48.102;19.682;2023-09-08T09:32:36;9.07;;;3.75;;
70929;SDS011;58588;48.102;19.682;2023-09-08T09:35:41;9.38;;;3.50;;
70929;SDS011;58588;48.102;19.682;2023-09-08T09:38:44;8.57;;;3.60;;
70929;SDS011;58588;48.102;19.682;2023-09-08T09:41:46;8.38;;;3.40;;
70929;SDS011;58588;48.102;19.682;2023-09-08T09:44:48;9.73;;;3.87;;
70929;SDS011;58588;48.102;19.682;2023-09-08T09:47:52;7.03;;;3.45;;
70929;SDS011;58588;48.102;19.682;2023-09-08T09:50:54;8.88;;;3.72;;
70929;SDS011;58588;48.102;19.682;2023-09-08T09:53:56;9.00;;;4.07;;
70929;SDS011;58588;48.102;19.682;2023-09-08T09:56:59;6.55;;;3.10;;
70929;SDS011;58588;48.102;19.682;2023-09-08T10:00:03;8.50;;;3.07;;
70929;SDS011;58588;48.102;19.682;2023-09-08T10:03:09;6.50;;;3.10;;
70929;SDS011;58588;48.102;19.682;2023-09-08T10:06:11;7.05;;;3.33;;
70929;SDS011;58588;48.102;19.682;2023-09-08T10:09:16;10.80;;;3.30;;
70929;SDS011;58588;48.102;19.682;2023-09-08T10:12:19;9.13;;;3.40;;
70929;SDS011;58588;48.102;19.682;2023-09-08T10:15:22;6.97;;;3.20;;
70929;SDS011;58588;48.102;19.682;2023-09-08T10:18:26;7.20;;;3.30;;
70929;SDS011;58588;48.102;19.682;2023-09-08T10:21:29;6.53;;;3.00;;
70929;SDS011;58588;48.102;19.682;2023-09-08T10:24:34;7.63;;;3.45;;
70929;SDS011;58588;48.102;19.682;2023-09-08T10:27:37;7.05;;;3.40;;
70929;SDS011;58588;48.102;19.682;2023-09-08T10:30:40;6.90;;;3.20;;
70929;SDS011;58588;48.102;19.682;2023-09-08T10:33:44;8.90;;;3.45;;
70929;SDS011;58588;48.102;19.682;2023-09-08T10:36:47;7.32;;;3.05;;
70929;SDS011;58588;48.102;19.682;2023-09-08T10:39:49;6.65;;;3.05;;
70929;SDS011;58588;48.102;19.682;2023-09-08T10:43:05;5.75;;;2.70;;
70929;SDS011;58588;48.102;19.682;2023-09-08T10:46:08;8.63;;;2.80;;
70929;SDS011;58588;48.102;19.682;2023-09-08T10:49:11;6.72;;;2.90;;
70929;SDS011;58588;48.102;19.682;2023-09-08T10:52:14;7.65;;;3.20;;
70929;SDS011;58588;48.102;19.682;2023-09-08T10:55:17;6.47;;;2.80;;
70929;SDS011;58588;48.102;19.682;2023-09-08T10:58:36;7.25;;;3.35;;
70929;SDS011;58588;48.102;19.682;2023-09-08T11:01:42;7.33;;;2.90;;
70929;SDS011;58588;48.102;19.682;2023-09-08T11:04:46;6.38;;;3.10;;
70929;SDS011;58588;48.102;19.682;2023-09-08T11:07:48;6.53;;;2.90;;
70929;SDS011;58588;48.102;19.682;2023-09-08T11:10:52;6.90;;;3.10;;
70929;SDS011;58588;48.102;19.682;2023-09-08T11:13:54;6.93;;;3.22;;
70929;SDS011;58588;48.102;19.682;2023-09-08T11:16:57;6.30;;;2.93;;
70929;SDS011;58588;48.102;19.682;2023-09-08T11:20:05;6.78;;;3.17;;
70929;SDS011;58588;48.102;19.682;2023-09-08T11:23:09;6.50;;;3.22;;
70929;SDS011;58588;48.102;19.682;2023-09-08T11:26:11;6.78;;;2.90;;
70929;SDS011;58588;48.102;19.682;2023-09-08T11:29:13;9.02;;;3.30;;
70929;SDS011;58588;48.102;19.682;2023-09-08T11:32:15;6.23;;;2.90;;
70929;SDS011;58588;48.102;19.682;2023-09-08T11:35:19;8.30;;;3.05;;
70929;SDS011;58588;48.102;19.682;2023-09-08T11:38:24;8.13;;;3.40;;
70929;SDS011;58588;48.102;19.682;2023-09-08T11:41:27;6.03;;;2.90;;
70929;SDS011;58588;48.102;19.682;2023-09-08T11:44:29;7.20;;;3.08;;
70929;SDS011;58588;48.102;19.682;2023-09-08T11:47:31;6.63;;;2.77;;
70929;SDS011;58588;48.102;19.682;2023-09-08T11:50:35;7.20;;;2.90;;
70929;SDS011;58588;48.102;19.682;2023-09-08T11:53:36;6.85;;;3.10;;
70929;SDS011;58588;48.102;19.682;2023-09-08T11:56:39;6.90;;;2.90;;
70929;SDS011;58588;48.102;19.682;2023-09-08T11:59:42;7.05;;;3.58;;
70929;SDS011;58588;48.102;19.682;2023-09-08T12:02:46;6.70;;;2.60;;
70929;SDS011;58588;48.102;19.682;2023-09-08T12:05:51;7.47;;;3.25;;
70929;SDS011;58588;48.102;19.682;2023-09-08T12:08:55;6.57;;;3.30;;
70929;SDS011;58588;48.102;19.682;2023-09-08T12:11:59;7.70;;;3.08;;
70929;SDS011;58588;48.102;19.682;2023-09-08T12:15:04;12.02;;;3.55;;
70929;SDS011;58588;48.102;19.682;2023-09-08T12:18:07;7.87;;;3.53;;
70929;SDS011;58588;48.102;19.682;2023-09-08T12:21:11;7.30;;;3.30;;
70929;SDS011;58588;48.102;19.682;2023-09-08T12:24:13;7.93;;;3.28;;
70929;SDS011;58588;48.102;19.682;2023-09-08T12:27:15;7.38;;;3.20;;
70929;SDS011;58588;48.102;19.682;2023-09-08T12:30:18;6.95;;;3.08;;
70929;SDS011;58588;48.102;19.682;2023-09-08T12:33:20;7.37;;;3.20;;
70929;SDS011;58588;48.102;19.682;2023-09-08T12:36:24;8.57;;;3.25;;
70929;SDS011;58588;48.102;19.682;2023-09-08T12:39:26;6.18;;;3.15;;
70929;SDS011;58588;48.102;19.682;2023-09-08T12:42:28;8.23;;;3.28;;
70929;SDS011;58588;48.102;19.682;2023-09-08T12:45:30;8.68;;;3.15;;
70929;SDS011;58588;48.102;19.682;2023-09-08T12:48:33;6.33;;;3.10;;
70929;SDS011;58588;48.102;19.682;2023-09-08T12:51:37;6.95;;;3.30;;
70929;SDS011;58588;48.102;19.682;2023-09-08T12:54:39;7.07;;;3.00;;
70929;SDS011;58588;48.102;19.682;2023-09-08T12:57:41;6.20;;;2.90;;
70929;SDS011;58588;48.102;19.682;2023-09-08T13:00:43;7.57;;;3.30;;
70929;SDS011;58588;48.102;19.682;2023-09-08T13:03:46;7.43;;;3.37;;
70929;SDS011;58588;48.102;19.682;2023-09-08T13:06:49;7.82;;;3.00;;
70929;SDS011;58588;48.102;19.682;2023-09-08T13:09:51;7.18;;;3.10;;
70929;SDS011;58588;48.102;19.682;2023-09-08T13:12:53;7.03;;;3.63;;
70929;SDS011;58588;48.102;19.682;2023-09-08T13:15:55;7.22;;;3.20;;
70929;SDS011;58588;48.102;19.682;2023-09-08T13:18:57;7.97;;;3.50;;
70929;SDS011;58588;48.102;19.682;2023-09-08T13:22:00;7.63;;;3.17;;
70929;SDS011;58588;48.102;19.682;2023-09-08T13:25:03;7.28;;;3.00;;
70929;SDS011;58588;48.102;19.682;2023-09-08T13:28:05;6.90;;;3.05;;
70929;SDS011;58588;48.102;19.682;2023-09-08T13:31:07;6.82;;;3.40;;
70929;SDS011;58588;48.102;19.682;2023-09-08T13:34:09;8.67;;;3.00;;
70929;SDS011;58588;48.102;19.682;2023-09-08T13:37:12;7.72;;;3.28;;
70929;SDS011;58588;48.102;19.682;2023-09-08T13:40:15;6.57;;;3.30;;
70929;SDS011;58588;48.102;19.682;2023-09-08T13:43:17;13.90;;;3.15;;
70929;SDS011;58588;48.102;19.682;2023-09-08T13:46:19;8.07;;;3.00;;
70929;SDS011;58588;48.102;19.682;2023-09-08T13:49:20;7.23;;;2.70;;
70929;SDS011;58588;48.102;19.682;2023-09-08T13:52:24;9.75;;;3.42;;
70929;SDS011;58588;48.102;19.682;2023-09-08T13:55:26;9.95;;;2.97;;
70929;SDS011;58588;48.102;19.682;2023-09-08T13:58:28;7.45;;;3.10;;
70929;SDS011;58588;48.102;19.682;2023-09-08T14:01:30;7.05;;;2.95;;
70929;SDS011;58588;48.102;19.682;2023-09-08T14:04:34;6.00;;;2.97;;
70929;SDS011;58588;48.102;19.682;2023-09-08T14:07:37;6.75;;;2.92;;
70929;SDS011;58588;48.102;19.682;2023-09-08T14:10:39;7.97;;;2.72;;
70929;SDS011;58588;48.102;19.682;2023-09-08T14:13:41;6.82;;;3.00;;
70929;SDS011;58588;48.102;19.682;2023-09-08T14:16:43;6.80;;;3.15;;
70929;SDS011;58588;48.102;19.682;2023-09-08T14:19:45;6.90;;;3.10;;
70929;SDS011;58588;48.102;19.682;2023-09-08T14:22:48;7.15;;;3.22;;
70929;SDS011;58588;48.102;19.682;2023-09-08T14:25:50;8.05;;;3.28;;
70929;SDS011;58588;48.102;19.682;2023-09-08T14:28:52;6.30;;;3.08;;
70929;SDS011;58588;48.102;19.682;2023-09-08T14:31:54;10.85;;;3.30;;
70929;SDS011;58588;48.102;19.682;2023-09-08T14:34:56;8.20;;;2.70;;
70929;SDS011;58588;48.102;19.682;2023-09-08T14:37:59;8.73;;;2.60;;
70929;SDS011;58588;48.102;19.682;2023-09-08T14:41:02;6.68;;;2.83;;
70929;SDS011;58588;48.102;19.682;2023-09-08T14:44:06;11.18;;;2.85;;
70929;SDS011;58588;48.102;19.682;2023-09-08T14:47:28;5.75;;;2.60;;
70929;SDS011;58588;48.102;19.682;2023-09-08T14:50:30;7.13;;;2.83;;
70929;SDS011;58588;48.102;19.682;2023-09-08T14:53:35;6.15;;;2.80;;
70929;SDS011;58588;48.102;19.682;2023-09-08T14:56:37;6.95;;;2.78;;
70929;SDS011;58588;48.102;19.682;2023-09-08T14:59:39;6.97;;;3.00;;
70929;SDS011;58588;48.102;19.682;2023-09-08T15:02:41;7.95;;;3.10;;
70929;SDS011;58588;48.102;19.682;2023-09-08T15:05:43;7.20;;;2.80;;
70929;SDS011;58588;48.102;19.682;2023-09-08T15:08:47;6.50;;;2.78;;
70929;SDS011;58588;48.102;19.682;2023-09-08T15:11:49;7.60;;;3.08;;
70929;SDS011;58588;48.102;19.682;2023-09-08T15:14:51;6.07;;;2.90;;
70929;SDS011;58588;48.102;19.682;2023-09-08T15:17:53;7.20;;;3.13;;
70929;SDS011;58588;48.102;19.682;2023-09-08T15:20:55;7.10;;;3.00;;
70929;SDS011;58588;48.102;19.682;2023-09-08T15:23:59;8.65;;;2.90;;
70929;SDS011;58588;48.102;19.682;2023-09-08T15:27:02;6.57;;;3.20;;
70929;SDS011;58588;48.102;19.682;2023-09-08T15:30:04;6.38;;;3.03;;
70929;SDS011;58588;48.102;19.682;2023-09-08T15:33:07;6.22;;;2.80;;
70929;SDS011;58588;48.102;19.682;2023-09-08T15:36:09;8.50;;;3.07;;
70929;SDS011;58588;48.102;19.682;2023-09-08T15:39:12;6.72;;;2.95;;
70929;SDS011;58588;48.102;19.682;2023-09-08T15:42:14;8.23;;;3.13;;
70929;SDS011;58588;48.102;19.682;2023-09-08T15:45:16;8.18;;;2.92;;
70929;SDS011;58588;48.102;19.682;2023-09-08T15:48:18;8.77;;;3.53;;
70929;SDS011;58588;48.102;19.682;2023-09-08T15:51:20;7.80;;;3.20;;
70929;SDS011;58588;48.102;19.682;2023-09-08T15:54:23;6.10;;;2.83;;
70929;SDS011;58588;48.102;19.682;2023-09-08T15:57:25;7.85;;;3.28;;
70929;SDS011;58588;48.102;19.682;2023-09-08T16:00:27;8.15;;;3.42;;
70929;SDS011;58588;48.102;19.682;2023-09-08T16:03:29;7.57;;;3.25;;
70929;SDS011;58588;48.102;19.682;2023-09-08T16:06:31;20.67;;;4.57;;
70929;SDS011;58588;48.102;19.682;2023-09-08T16:09:34;12.25;;;3.50;;
70929;SDS011;58588;48.102;19.682;2023-09-08T16:12:36;7.22;;;3.17;;
70929;SDS011;58588;48.102;19.682;2023-09-08T16:15:38;6.70;;;3.10;;
70929;SDS011;58588;48.102;19.682;2023-09-08T16:18:40;6.60;;;3.05;;
70929;SDS011;58588;48.102;19.682;2023-09-08T16:21:42;7.70;;;3.43;;
70929;SDS011;58588;48.102;19.682;2023-09-08T16:24:45;8.27;;;3.10;;
70929;SDS011;58588;48.102;19.682;2023-09-08T16:27:47;7.38;;;3.35;;
70929;SDS011;58588;48.102;19.682;2023-09-08T16:30:49;7.43;;;3.28;;
70929;SDS011;58588;48.102;19.682;2023-09-08T16:33:51;8.07;;;3.38;;
70929;SDS011;58588;48.102;19.682;2023-09-08T16:36:53;8.33;;;3.17;;
70929;SDS011;58588;48.102;19.682;2023-09-08T16:39:56;7.53;;;3.40;;
70929;SDS011;58588;48.102;19.682;2023-09-08T16:43:01;9.27;;;3.58;;
70929;SDS011;58588;48.102;19.682;2023-09-08T16:46:04;13.40;;;3.90;;
70929;SDS011;58588;48.102;19.682;2023-09-08T16:49:06;8.63;;;3.60;;
70929;SDS011;58588;48.102;19.682;2023-09-08T16:52:07;8.00;;;3.37;;
70929;SDS011;58588;48.102;19.682;2023-09-08T16:55:11;29.85;;;5.22;;
70929;SDS011;58588;48.102;19.682;2023-09-08T16:58:13;16.83;;;4.50;;
70929;SDS011;58588;48.102;19.682;2023-09-08T17:01:15;47.08;;;6.75;;
70929;SDS011;58588;48.102;19.682;2023-09-08T17:04:17;11.70;;;3.35;;
70929;SDS011;58588;48.102;19.682;2023-09-08T17:07:18;8.57;;;3.37;;
70929;SDS011;58588;48.102;19.682;2023-09-08T17:10:22;8.45;;;3.30;;
70929;SDS011;58588;48.102;19.682;2023-09-08T17:13:24;8.23;;;3.28;;
70929;SDS011;58588;48.102;19.682;2023-09-08T17:16:26;11.85;;;3.63;;
70929;SDS011;58588;48.102;19.682;2023-09-08T17:19:28;9.13;;;3.50;;
70929;SDS011;58588;48.102;19.682;2023-09-08T17:22:33;8.02;;;3.47;;
70929;SDS011;58588;48.102;19.682;2023-09-08T17:25:37;10.20;;;3.63;;
70929;SDS011;58588;48.102;19.682;2023-09-08T17:28:39;10.13;;;3.55;;
70929;SDS011;58588;48.102;19.682;2023-09-08T17:31:40;7.20;;;3.50;;
70929;SDS011;58588;48.102;19.682;2023-09-08T17:34:42;7.75;;;3.60;;
70929;SDS011;58588;48.102;19.682;2023-09-08T17:37:44;8.70;;;3.75;;
70929;SDS011;58588;48.102;19.682;2023-09-08T17:40:48;11.23;;;3.90;;
70929;SDS011;58588;48.102;19.682;2023-09-08T17:43:49;8.98;;;3.63;;
70929;SDS011;58588;48.102;19.682;2023-09-08T17:46:51;7.50;;;3.47;;
70929;SDS011;58588;48.102;19.682;2023-09-08T17:49:53;8.50;;;3.97;;
70929;SDS011;58588;48.102;19.682;2023-09-08T17:52:55;9.35;;;3.63;;
70929;SDS011;58588;48.102;19.682;2023-09-08T17:55:58;9.00;;;3.93;;
70929;SDS011;58588;48.102;19.682;2023-09-08T17:59:00;9.23;;;3.70;;
70929;SDS011;58588;48.102;19.682;2023-09-08T18:02:02;8.73;;;3.90;;
70929;SDS011;58588;48.102;19.682;2023-09-08T18:05:05;9.00;;;4.00;;